Søk
Bilder fra klubbens virksomhet
Tooltip
Kim M Mortensen har fløyet solo
Tooltip
Espen Wiik har fløyet solo
Tooltip
Rashad Habib har fløyet solo
Tooltip
David Froholt har fløyet solo
Tooltip
Leif Olsen er pilot
  • Tilfeldig bilde
     
    Opplastet 12-05-2008
    Opplastet 12-05-2008
    Opplastet 11-05-2008
     
  • Siste bilde
     
    Opplastet 31-10-2017
    Opplastet 31-10-2017
    Opplastet 31-10-2017
     
«StartForrige1234NesteSiste»
Side 1 av 4
 
 
METAR
2018/04/19 19:20 ENCN 191920Z 00000KT CAVOK 08/07 Q1027
TAF
2018/04/19 18:38 TAF ENCN 191700Z 1918/1921 21005KT 9999 FEW020 BECMG 1918/1920 0600 FG VV002
LN-KFK
Operativ VFR-natt
VFR dag
05:22 - 21:33
Brannvakt
Inaktiv
Banner
Banner
Banner
Banner
Banner